Time;durP1;ratioP1;P1;durP2;ratioP2;P2;SDS_P1;SDS_P2;PMS_P1;PMS_P2;Temp;Humidity;BMP_temperature;BMP_pressure;BME280_temperature;BME280_humidity;BME280_pressure;Samples;Min_cycle;Max_cycle;Signal;HPM_P1;HPM_P2
2022/10/07 00:00:02;;;;;;;4.97;1.20;;;;;;;10.63;78.55;101873.47;5044477;28;20262;-80
2022/10/07 00:02:29;;;;;;;5.37;1.10;;;;;;;10.62;78.46;101874.31;5042855;28;20733;-81
2022/10/07 00:04:55;;;;;;;4.80;1.20;;;;;;;10.62;78.61;101882.16;5041642;28;20228;-81
2022/10/07 00:07:22;;;;;;;2.70;1.00;;;;;;;10.54;78.82;101873.44;5039924;28;20213;-80
2022/10/07 00:09:49;;;;;;;2.20;1.23;;;;;;;10.51;78.80;101868.22;5040502;28;20298;-80
2022/10/07 00:12:15;;;;;;;2.67;1.20;;;;;;;10.43;78.86;101869.91;5041475;28;20596;-82
2022/10/07 00:14:43;;;;;;;4.90;1.97;;;;;;;10.43;78.54;101870.78;5039701;28;20293;-80
2022/10/07 00:17:09;;;;;;;3.97;1.47;;;;;;;10.42;78.67;101874.25;5039546;28;20264;-81
2022/10/07 00:19:36;;;;;;;7.13;1.80;;;;;;;10.41;78.61;101874.25;5040632;28;20204;-82
2022/10/07 00:22:02;;;;;;;2.87;1.23;;;;;;;10.34;78.92;101865.50;5039911;28;20231;-82
2022/10/07 00:24:29;;;;;;;3.73;1.10;;;;;;;10.32;78.62;101862.00;5039577;28;20233;-80
2022/10/07 00:26:55;;;;;;;5.03;1.07;;;;;;;10.27;78.71;101856.75;5039954;28;20668;-81
2022/10/07 00:29:22;;;;;;;8.20;2.03;;;;;;;10.25;79.00;101845.44;5040155;28;20239;-81
2022/10/07 00:31:50;;;;;;;3.53;1.33;;;;;;;10.25;79.00;101841.97;5046473;28;20205;-79
2022/10/07 00:34:16;;;;;;;3.30;1.20;;;;;;;10.19;79.10;101827.13;5043523;28;20239;-81
2022/10/07 00:36:43;;;;;;;2.93;1.30;;;;;;;10.19;79.25;101815.81;5039503;28;20237;-81
2022/10/07 00:39:13;;;;;;;3.80;1.37;;;;;;;10.14;79.34;101821.88;5039601;28;20215;-81
2022/10/07 00:41:42;;;;;;;3.90;1.23;;;;;;;10.07;79.62;101806.22;5039723;28;20202;-81
2022/10/07 00:44:37;;;;;;;2.77;1.30;;;;;;;10.07;79.42;101794.03;5039451;28;20215;-80
2022/10/07 00:47:10;;;;;;;3.20;1.43;;;;;;;10.03;79.67;101789.66;5040004;28;20212;-81
2022/10/07 00:49:41;;;;;;;2.80;1.00;;;;;;;9.98;79.60;101786.16;5040121;28;20816;-81
2022/10/07 00:52:08;;;;;;;6.40;1.90;;;;;;;9.99;79.58;101785.28;5039430;28;20238;-81
2022/10/07 00:54:36;;;;;;;4.50;1.30;;;;;;;10.00;79.60;101773.13;5039271;28;20222;-81
2022/10/07 00:57:03;;;;;;;3.83;1.50;;;;;;;9.99;79.88;101772.25;5039302;28;20604;-80
2022/10/07 00:59:30;;;;;;;4.53;1.10;;;;;;;9.97;79.94;101760.03;5038821;28;20740;-79
2022/10/07 01:01:56;;;;;;;6.33;1.13;;;;;;;9.95;79.96;101762.66;5044485;28;20656;-80
2022/10/07 01:04:24;;;;;;;6.00;1.73;;;;;;;9.92;79.50;101760.91;5038206;28;20327;-79
2022/10/07 01:06:50;;;;;;;3.17;1.20;;;;;;;9.91;79.44;101768.72;5038716;28;20206;-82
2022/10/07 01:09:19;;;;;;;3.33;1.27;;;;;;;9.88;79.42;101771.31;5038797;28;20216;-81
2022/10/07 01:11:55;;;;;;;3.57;1.77;;;;;;;9.84;79.45;101762.59;5039119;28;20250;-82
2022/10/07 01:14:37;;;;;;;5.37;1.30;;;;;;;9.76;79.57;101763.44;5038552;28;20231;-81
2022/10/07 01:17:08;;;;;;;4.70;1.33;;;;;;;9.62;80.21;101761.59;5039378;28;20213;-81
2022/10/07 01:19:56;;;;;;;2.53;1.30;;;;;;;9.57;80.44;101744.19;5039295;28;20712;-81
2022/10/07 01:22:32;;;;;;;8.13;1.40;;;;;;;9.49;79.87;101742.41;5039569;28;20569;-81
2022/10/07 01:25:14;;;;;;;3.63;1.20;;;;;;;9.38;80.40;101732.78;5038992;28;20238;-81
2022/10/07 01:27:48;;;;;;;2.50;1.60;;;;;;;9.36;80.30;101719.75;5038725;28;20216;-81
2022/10/07 01:30:16;;;;;;;2.20;1.37;;;;;;;9.34;80.46;101714.50;5038938;28;20537;-82
2022/10/07 01:32:52;;;;;;;3.67;1.60;;;;;;;9.31;80.84;101705.78;5039158;28;20661;-81
2022/10/07 01:35:23;;;;;;;5.17;1.60;;;;;;;9.31;80.37;101708.41;5039082;28;20231;-81
2022/10/07 01:37:53;;;;;;;4.17;1.37;;;;;;;9.31;79.83;101713.59;5038863;28;20242;-80
2022/10/07 01:40:24;;;;;;;5.20;1.43;;;;;;;9.32;80.63;101708.41;5039215;28;20213;-81
2022/10/07 01:42:51;;;;;;;2.63;1.10;;;;;;;9.30;81.25;101691.91;5039092;28;20210;-79
2022/10/07 01:45:20;;;;;;;3.57;1.40;;;;;;;9.25;81.83;101664.06;5038254;28;20760;-81
2022/10/07 01:47:47;;;;;;;2.33;1.20;;;;;;;9.26;81.48;101663.22;5039511;28;20869;-81
2022/10/07 01:50:15;;;;;;;5.80;1.20;;;;;;;9.28;81.27;101659.75;5053404;28;20207;-81
2022/10/07 01:52:57;;;;;;;3.10;0.80;;;;;;;9.27;81.25;101672.75;5056508;28;20231;-79
2022/10/07 01:55:37;;;;;;;2.53;1.77;;;;;;;9.23;81.00;101663.19;5056698;28;20229;-78
2022/10/07 01:58:14;;;;;;;1.93;0.90;;;;;;;9.20;81.32;101661.44;5056802;28;20221;-79
2022/10/07 02:00:47;;;;;;;2.87;1.07;;;;;;;9.17;81.20;101647.53;5057162;28;20204;-79
2022/10/07 02:03:34;;;;;;;9.40;2.20;;;;;;;9.19;81.33;101651.00;5057441;28;20191;-80
2022/10/07 02:09:29;;;;;;;1.10;0.80;;;;;;;9.10;81.12;101647.50;5054891;28;20201;-79
2022/10/07 02:12:02;;;;;;;3.93;1.60;;;;;;;9.08;81.47;101646.59;5056016;28;20206;-81
2022/10/07 02:14:37;;;;;;;9.27;1.30;;;;;;;9.08;81.90;101630.13;5039103;28;20235;-78
2022/10/07 02:17:09;;;;;;;4.87;1.60;;;;;;;9.03;82.06;101617.03;5038349;28;20297;-81
2022/10/07 02:19:39;;;;;;;7.00;1.93;;;;;;;9.03;82.43;101604.03;5038887;28;20237;-80
2022/10/07 02:22:09;;;;;;;3.53;1.10;;;;;;;9.05;82.57;101589.28;5038013;28;20233;-81
2022/10/07 02:24:37;;;;;;;7.90;1.77;;;;;;;9.08;82.80;101594.50;5038251;28;20226;-81
2022/10/07 02:27:08;;;;;;;3.87;1.10;;;;;;;9.08;83.17;101576.28;5037691;28;20208;-82
2022/10/07 02:29:39;;;;;;;4.93;1.10;;;;;;;9.11;82.89;101581.50;5037843;28;20213;-81
2022/10/07 02:32:09;;;;;;;3.80;0.90;;;;;;;9.10;83.18;101581.50;5037639;28;20212;-81
2022/10/07 02:34:40;;;;;;;2.87;1.00;;;;;;;9.10;82.88;101584.09;5037981;28;20294;-81
2022/10/07 02:37:13;;;;;;;7.13;1.30;;;;;;;9.16;82.76;101578.94;5038371;28;20285;-81
2022/10/07 02:39:42;;;;;;;2.17;1.40;;;;;;;9.13;83.12;101584.09;5037419;28;20280;-81
2022/10/07 02:42:15;;;;;;;3.37;1.33;;;;;;;9.13;82.86;101584.09;5037676;28;20207;-81
2022/10/07 02:44:47;;;;;;;5.20;1.50;;;;;;;9.09;82.72;101578.00;5037756;28;20223;-80
2022/10/07 02:47:18;;;;;;;4.43;1.37;;;;;;;9.07;82.99;101577.13;5037696;28;20206;-81
2022/10/07 02:49:52;;;;;;;3.57;1.20;;;;;;;9.07;82.87;101578.88;5038117;28;20216;-82
2022/10/07 02:52:20;;;;;;;6.30;1.63;;;;;;;9.06;82.98;101585.81;5037258;28;20692;-81
2022/10/07 02:54:53;;;;;;;5.87;1.83;;;;;;;9.01;82.73;101590.13;5037232;28;20231;-80
2022/10/07 02:57:21;;;;;;;2.13;1.17;;;;;;;8.96;82.58;101589.22;5037917;28;20214;-80
2022/10/07 02:59:51;;;;;;;5.47;1.53;;;;;;;8.92;82.82;101588.34;5037626;28;20242;-81
2022/10/07 03:02:23;;;;;;;3.87;1.23;;;;;;;8.99;82.48;101585.78;5037651;28;20198;-81
2022/10/07 03:04:49;;;;;;;2.53;1.43;;;;;;;9.01;82.65;101586.66;5037565;28;20227;-80
2022/10/07 03:07:16;;;;;;;4.03;1.40;;;;;;;8.99;82.46;101591.84;5037947;28;20257;-81
2022/10/07 03:09:42;;;;;;;3.67;1.50;;;;;;;9.05;82.33;101591.00;5037927;28;20208;-80
2022/10/07 03:12:09;;;;;;;2.63;1.60;;;;;;;9.00;82.37;101588.38;5037825;28;20218;-80
2022/10/07 03:14:36;;;;;;;2.73;1.60;;;;;;;8.97;82.60;101583.16;5037654;28;20234;-81
2022/10/07 03:17:03;;;;;;;5.83;1.60;;;;;;;8.96;83.00;101576.22;5037701;28;20265;-80
2022/10/07 03:19:30;;;;;;;4.67;1.30;;;;;;;8.98;82.69;101581.41;5038265;28;20213;-80
2022/10/07 03:21:56;;;;;;;2.83;2.00;;;;;;;8.98;82.46;101576.19;5038102;28;20206;-81
2022/10/07 03:24:23;;;;;;;3.47;1.73;;;;;;;8.94;82.99;101572.72;5038377;28;20311;-82
2022/10/07 03:26:49;;;;;;;4.70;1.60;;;;;;;8.94;82.85;101576.19;5037337;28;20206;-81
2022/10/07 03:29:16;;;;;;;3.03;1.60;;;;;;;8.93;82.74;101576.19;5040085;28;20273;-81
2022/10/07 03:31:42;;;;;;;4.17;1.80;;;;;;;8.98;82.84;101577.09;5041231;28;20213;-81
2022/10/07 03:34:10;;;;;;;3.70;1.60;;;;;;;8.98;82.66;101569.28;5041757;28;20222;-81
2022/10/07 03:36:38;;;;;;;5.30;1.90;;;;;;;8.98;82.88;101565.78;5041154;28;20213;-81
2022/10/07 03:39:04;;;;;;;5.10;2.00;;;;;;;8.93;82.94;101558.81;5041248;28;20244;-81
2022/10/07 03:41:31;;;;;;;3.50;1.53;;;;;;;8.97;82.73;101551.91;5041007;28;20261;-80
2022/10/07 03:43:58;;;;;;;2.53;1.63;;;;;;;8.91;82.63;101547.53;5041186;28;20199;-81
2022/10/07 03:46:24;;;;;;;7.23;2.10;;;;;;;8.94;82.45;101559.72;5040330;28;20211;-81
2022/10/07 03:48:51;;;;;;;4.60;2.03;;;;;;;8.90;82.49;101564.03;5041965;28;20633;-79
2022/10/07 03:51:18;;;;;;;6.70;2.13;;;;;;;8.83;82.68;101556.16;5041452;28;20274;-79
2022/10/07 03:53:45;;;;;;;2.93;2.10;;;;;;;8.85;82.87;101551.84;5041944;28;20231;-81
2022/10/07 03:56:12;;;;;;;9.80;2.27;;;;;;;8.84;82.46;101548.38;5040617;28;20224;-81
2022/10/07 03:58:38;;;;;;;4.13;1.80;;;;;;;8.88;82.41;101554.44;5040828;28;20218;-80
2022/10/07 04:01:06;;;;;;;3.90;1.60;;;;;;;8.83;82.47;101553.56;5041011;28;20209;-81
2022/10/07 04:03:32;;;;;;;3.10;2.20;;;;;;;8.78;82.47;101547.44;5040788;28;20229;-79
2022/10/07 04:05:59;;;;;;;27.73;4.07;;;;;;;8.77;82.65;101551.78;5040078;28;20230;-81
2022/10/07 04:08:28;;;;;;;3.43;1.57;;;;;;;8.79;82.98;101549.19;5040578;28;20202;-81
2022/10/07 04:10:54;;;;;;;2.43;1.50;;;;;;;8.73;82.85;101544.81;5040865;28;20237;-81
2022/10/07 04:13:21;;;;;;;3.87;1.80;;;;;;;8.75;82.76;101538.75;5040601;28;20241;-81
2022/10/07 04:15:47;;;;;;;4.57;1.60;;;;;;;8.70;83.20;101539.56;5040494;28;20880;-80
2022/10/07 04:18:14;;;;;;;4.20;2.13;;;;;;;8.68;82.88;101536.09;5040021;28;20202;-80
2022/10/07 04:20:40;;;;;;;2.37;1.60;;;;;;;8.62;83.34;101526.53;5040158;28;20206;-81
2022/10/07 04:23:07;;;;;;;3.87;1.60;;;;;;;8.59;83.36;101512.63;5040507;28;20202;-81
2022/10/07 04:25:35;;;;;;;3.73;1.40;;;;;;;8.61;82.88;101514.38;5040588;28;20226;-81
2022/10/07 04:28:03;;;;;;;6.67;1.80;;;;;;;8.57;83.38;101517.81;5040146;28;20214;-81
2022/10/07 04:30:32;;;;;;;3.73;1.60;;;;;;;8.59;83.50;101517.84;5040684;28;20210;-81
2022/10/07 04:32:58;;;;;;;4.17;1.60;;;;;;;8.55;83.28;101515.19;5040291;28;20273;-81
2022/10/07 04:35:25;;;;;;;4.20;2.00;;;;;;;8.60;83.39;101520.41;5040075;28;20261;-81
2022/10/07 04:37:53;;;;;;;3.47;1.77;;;;;;;8.55;83.68;101510.00;5040117;28;20231;-81
2022/10/07 04:40:20;;;;;;;6.63;1.70;;;;;;;8.49;84.35;101483.94;5039418;28;20232;-81
2022/10/07 04:45:33;;;;;;;3.77;2.00;;;;;;;8.48;86.00;101448.38;5039748;28;20224;-81
2022/10/07 04:48:00;;;;;;;4.10;1.50;;;;;;;8.51;85.52;101445.78;5039963;28;20236;-80
2022/10/07 04:50:27;;;;;;;6.53;2.40;;;;;;;8.51;84.56;101439.72;5040059;28;20289;-80
2022/10/07 04:52:53;;;;;;;4.93;1.97;;;;;;;8.48;85.08;101447.50;5040236;28;20229;-80
2022/10/07 04:55:20;;;;;;;5.77;2.10;;;;;;;8.52;85.22;101438.84;5039661;28;20239;-80
2022/10/07 04:57:48;;;;;;;7.73;2.30;;;;;;;8.50;85.80;101436.25;5040260;28;20207;-79
2022/10/07 05:00:15;;;;;;;8.13;1.70;;;;;;;8.45;85.73;101418.88;5039776;28;20207;-81
2022/10/07 05:02:43;;;;;;;4.57;2.07;;;;;;;8.44;85.50;101427.53;5039499;28;20222;-80
2022/10/07 05:05:09;;;;;;;3.27;1.83;;;;;;;8.44;85.52;101414.50;5039636;28;20226;-81
2022/10/07 05:07:36;;;;;;;3.77;1.67;;;;;;;8.46;86.00;101418.88;5040585;28;20596;-81
2022/10/07 05:10:02;;;;;;;5.23;2.00;;;;;;;8.51;84.32;101440.56;5040012;28;20268;-81
2022/10/07 05:12:29;;;;;;;3.77;1.73;;;;;;;8.56;84.81;101448.41;5042255;28;20199;-81
2022/10/07 05:14:57;;;;;;;4.43;1.73;;;;;;;8.60;84.75;101446.69;5039890;28;20728;-81
2022/10/07 05:17:24;;;;;;;3.63;1.87;;;;;;;8.64;84.97;101446.75;5039288;28;20202;-81
2022/10/07 05:19:50;;;;;;;6.03;1.87;;;;;;;8.63;85.31;101449.31;5031791;28;20408;-81
2022/10/07 05:22:17;;;;;;;4.53;1.67;;;;;;;8.62;85.56;101443.25;5042820;28;20216;-81
2022/10/07 05:24:43;;;;;;;3.23;1.67;;;;;;;8.62;85.32;101442.38;5039417;28;20272;-79
2022/10/07 05:27:10;;;;;;;3.40;1.37;;;;;;;8.59;84.91;101443.22;5040112;28;20206;-81
2022/10/07 05:29:36;;;;;;;7.57;2.00;;;;;;;8.60;85.13;101442.34;5040285;28;20219;-81
2022/10/07 05:32:04;;;;;;;4.87;1.90;;;;;;;8.52;85.16;101436.22;5039661;28;20210;-81
2022/10/07 05:34:30;;;;;;;5.83;1.40;;;;;;;8.50;85.47;101419.75;5038866;28;20230;-80
2022/10/07 05:36:58;;;;;;;4.67;1.50;;;;;;;8.53;85.60;101418.03;5037685;28;20217;-80
2022/10/07 05:39:24;;;;;;;2.97;1.50;;;;;;;8.50;85.26;101423.25;5033947;28;20209;-79
2022/10/07 05:41:50;;;;;;;3.97;1.50;;;;;;;8.52;85.21;101429.31;5033697;28;20255;-79
2022/10/07 05:44:17;;;;;;;3.07;1.50;;;;;;;8.53;85.71;101415.44;5033437;28;20670;-79
2022/10/07 05:46:43;;;;;;;3.93;1.57;;;;;;;8.55;85.14;101418.06;5035256;28;20214;-79
2022/10/07 05:49:11;;;;;;;3.90;1.40;;;;;;;8.55;84.69;101438.88;5038895;28;20204;-80
2022/10/07 05:51:38;;;;;;;4.53;1.80;;;;;;;8.54;84.92;101437.09;5042542;28;20285;-80
2022/10/07 05:54:04;;;;;;;2.97;1.73;;;;;;;8.58;85.22;101436.25;5023432;28;20239;-79
2022/10/07 05:56:31;;;;;;;4.47;1.57;;;;;;;8.65;84.15;101447.59;5024700;28;20229;-79
2022/10/07 05:58:57;;;;;;;5.63;2.07;;;;;;;8.64;84.64;101456.25;5022804;28;20211;-80
2022/10/07 06:01:26;;;;;;;5.10;1.97;;;;;;;8.67;84.65;101464.09;5025584;28;20257;-79
2022/10/07 06:03:55;;;;;;;11.00;2.87;;;;;;;8.71;84.10;101458.03;5024656;28;20670;-79
2022/10/07 06:06:24;;;;;;;4.53;1.50;;;;;;;8.73;84.26;101472.78;5023763;28;20291;-79
2022/10/07 06:08:51;;;;;;;6.63;2.23;;;;;;;8.74;84.46;101458.03;5024960;28;20213;-79
2022/10/07 06:14:04;;;;;;;8.10;1.77;;;;;;;8.76;85.13;101443.31;5025773;28;20718;-80
2022/10/07 06:16:30;;;;;;;6.73;1.50;;;;;;;8.75;84.90;101437.22;5026522;28;20215;-79
2022/10/07 06:18:58;;;;;;;4.17;1.57;;;;;;;8.76;84.78;101440.72;5029647;28;20209;-79
2022/10/07 06:21:27;;;;;;;5.77;1.77;;;;;;;8.85;84.96;101432.06;5024712;28;20246;-80
2022/10/07 06:23:54;;;;;;;3.23;1.20;;;;;;;8.88;84.30;101439.88;5024801;28;20235;-80
2022/10/07 06:26:22;;;;;;;2.70;1.70;;;;;;;8.85;84.97;101426.88;5025248;28;20669;-80
2022/10/07 06:28:48;;;;;;;3.87;1.40;;;;;;;8.82;85.22;101430.34;5024412;28;20257;-78
2022/10/07 06:31:21;;;;;;;6.27;1.80;;;;;;;8.83;85.00;101447.69;5024790;28;20698;-80
2022/10/07 06:33:48;;;;;;;3.23;1.33;;;;;;;8.87;85.43;101433.81;5024340;28;20229;-80
2022/10/07 06:36:15;;;;;;;2.63;1.30;;;;;;;8.90;85.26;101414.72;5024553;28;20222;-80
2022/10/07 06:38:45;;;;;;;3.50;1.43;;;;;;;8.96;84.75;101435.59;5026490;28;20198;-78
2022/10/07 06:41:12;;;;;;;4.40;1.80;;;;;;;8.98;84.76;101448.59;5024675;28;20273;-80
2022/10/07 06:43:38;;;;;;;2.33;1.27;;;;;;;9.00;85.35;101431.25;5024714;28;20230;-80
2022/10/07 06:46:07;;;;;;;3.63;1.40;;;;;;;9.03;85.09;101421.72;5026184;28;20783;-81
2022/10/07 06:48:34;;;;;;;5.80;1.50;;;;;;;9.07;85.57;101413.03;5029645;28;20206;-80
2022/10/07 06:51:02;;;;;;;4.83;1.67;;;;;;;9.08;84.77;101429.56;5026736;28;20202;-80
2022/10/07 06:53:29;;;;;;;4.20;1.30;;;;;;;9.03;85.75;101406.09;5030878;28;20199;-79
2022/10/07 06:56:01;;;;;;;4.27;1.47;;;;;;;9.08;85.16;101400.91;5024516;28;20768;-81
2022/10/07 06:58:28;;;;;;;2.40;1.33;;;;;;;9.11;84.58;101426.94;5027825;28;20194;-81
2022/10/07 07:00:54;;;;;;;3.83;1.40;;;;;;;9.17;84.39;101442.59;5025970;28;20673;-79
2022/10/07 07:03:21;;;;;;;5.73;1.53;;;;;;;9.24;84.97;101433.09;5025297;28;20238;-79
2022/10/07 07:05:50;;;;;;;3.47;1.70;;;;;;;9.18;85.59;101417.41;5023591;28;20245;-80
2022/10/07 07:08:16;;;;;;;4.90;1.67;;;;;;;9.13;84.66;101426.09;5034773;28;20754;-81
2022/10/07 07:10:44;;;;;;;1.97;1.30;;;;;;;9.21;84.65;101436.53;5045766;28;20206;-80
2022/10/07 07:13:13;;;;;;;4.60;1.53;;;;;;;9.19;85.55;101412.22;5051455;28;20205;-79
2022/10/07 07:15:40;;;;;;;3.50;1.80;;;;;;;9.28;85.65;101403.56;5057989;28;20253;-80
2022/10/07 07:18:08;;;;;;;3.70;1.20;;;;;;;9.27;85.38;101418.31;5057801;28;20248;-81
2022/10/07 07:20:36;;;;;;;2.50;1.23;;;;;;;9.33;85.17;101410.50;5057468;28;20730;-79
2022/10/07 07:23:03;;;;;;;4.50;1.67;;;;;;;9.36;84.67;101432.25;5057082;28;20271;-79
2022/10/07 07:25:30;;;;;;;3.53;2.10;;;;;;;9.38;86.70;101400.09;5049924;28;20233;-81
2022/10/07 07:27:59;;;;;;;3.70;1.80;;;;;;;9.40;87.82;101374.06;5037605;28;20216;-82
2022/10/07 07:30:27;;;;;;;5.47;1.30;;;;;;;9.40;88.19;101332.34;5037411;28;20208;-80
2022/10/07 07:32:55;;;;;;;6.00;1.50;;;;;;;9.40;87.70;101340.19;5037450;28;20632;-81
2022/10/07 07:35:22;;;;;;;3.77;1.20;;;;;;;9.43;88.35;101314.09;5037596;28;20230;-81
2022/10/07 07:37:49;;;;;;;3.63;1.20;;;;;;;9.43;88.41;101317.56;5037975;28;20681;-81
2022/10/07 07:40:16;;;;;;;2.77;1.40;;;;;;;9.39;89.23;101302.81;5037178;28;20256;-79
2022/10/07 07:42:42;;;;;;;4.27;1.27;;;;;;;9.45;89.49;101288.91;5037529;28;20303;-78
2022/10/07 07:45:09;;;;;;;4.90;1.33;;;;;;;9.40;87.60;101314.13;5037964;28;20230;-80
2022/10/07 07:47:37;;;;;;;3.60;1.10;;;;;;;9.44;88.73;101314.09;5038443;28;20234;-80
2022/10/07 07:52:36;;;;;;;4.50;1.77;;;;;;;9.49;89.31;101296.75;4972049;28;20228;-80
2022/10/07 07:55:03;;;;;;;4.93;1.60;;;;;;;9.57;89.02;101290.63;4987791;28;20226;-78
2022/10/07 07:57:30;;;;;;;4.50;1.47;;;;;;;9.66;88.75;101306.28;4986482;28;20208;-81
2022/10/07 07:59:57;;;;;;;6.07;2.23;;;;;;;9.70;88.23;101313.22;4987757;28;20206;-81
2022/10/07 08:02:23;;;;;;;5.60;1.63;;;;;;;9.75;88.17;101332.31;4987001;28;20220;-81
2022/10/07 08:04:52;;;;;;;3.70;1.30;;;;;;;9.85;87.02;101349.72;4986802;28;20213;-81
2022/10/07 08:07:19;;;;;;;2.60;1.33;;;;;;;9.96;85.97;101380.13;4982741;28;20203;-80
2022/10/07 08:09:45;;;;;;;3.40;1.50;;;;;;;10.04;84.59;101418.34;4986451;28;20565;-80
2022/10/07 08:12:13;;;;;;;3.30;1.00;;;;;;;10.21;82.77;101482.69;4988315;28;20224;-80
2022/10/07 08:14:40;;;;;;;6.23;1.77;;;;;;;10.34;81.46;101526.22;4989785;28;20788;-80
2022/10/07 08:17:06;;;;;;;9.10;1.23;;;;;;;10.46;81.82;101546.22;4989632;28;20214;-80
2022/10/07 08:19:33;;;;;;;6.43;1.57;;;;;;;10.54;80.17;101554.91;4990749;28;20204;-80
2022/10/07 08:22:00;;;;;;;9.13;1.30;;;;;;;10.67;80.46;101593.19;4990496;28;20246;-79
2022/10/07 08:24:27;;;;;;;3.07;1.20;;;;;;;10.72;80.39;101591.47;5017673;22;20200;-78
2022/10/07 08:26:53;;;;;;;4.63;1.33;;;;;;;10.79;78.55;101612.34;4327511;28;10000731;-77
2022/10/07 08:29:20;;;;;;;3.83;1.30;;;;;;;10.90;77.80;101650.66;5011806;28;20575;-78
2022/10/07 08:31:47;;;;;;;2.93;1.37;;;;;;;10.95;79.16;101641.94;5016300;28;20218;-78
2022/10/07 08:34:14;;;;;;;6.30;1.53;;;;;;;11.05;78.50;101657.59;5016598;28;20212;-78
2022/10/07 08:36:45;;;;;;;4.60;1.37;;;;;;;11.15;76.84;101691.56;5015392;28;20285;-78
2022/10/07 08:39:13;;;;;;;3.07;1.57;;;;;;;11.30;76.94;101709.84;5016212;28;20554;-79
2022/10/07 08:41:49;;;;;;;3.77;1.67;;;;;;;11.38;76.35;101715.03;5015686;28;20212;-78
2022/10/07 08:44:25;;;;;;;5.73;1.40;;;;;;;11.40;76.74;101700.25;5017067;28;20227;-78
2022/10/07 08:46:58;;;;;;;5.97;1.10;;;;;;;11.45;77.27;101688.00;5015490;28;20218;-79
2022/10/07 08:49:35;;;;;;;2.80;1.30;;;;;;;11.43;77.83;101674.06;5016328;28;20713;-78
2022/10/07 08:52:07;;;;;;;6.17;1.50;;;;;;;11.50;76.75;101683.66;5014954;28;20619;-81
2022/10/07 08:54:37;;;;;;;5.37;1.47;;;;;;;11.60;76.91;101684.50;5014749;28;20749;-77
2022/10/07 08:57:12;;;;;;;4.93;1.30;;;;;;;11.60;76.21;101679.28;5015154;28;20212;-78
2022/10/07 08:59:44;;;;;;;5.63;1.40;;;;;;;11.74;75.34;101701.00;5014330;28;20206;-78
2022/10/07 09:02:27;;;;;;;5.03;1.93;;;;;;;11.90;75.64;101718.41;5014399;28;20224;-78
2022/10/07 09:05:05;;;;;;;3.00;1.40;;;;;;;11.92;77.61;101680.03;5016328;28;20315;-79
2022/10/07 09:07:34;;;;;;;6.90;1.53;;;;;;;11.97;74.14;101713.16;5016503;28;20214;-77
2022/10/07 09:10:14;;;;;;;5.20;1.57;;;;;;;12.07;73.22;101760.25;5016047;28;21048;-78
2022/10/07 09:12:46;;;;;;;6.83;1.77;;;;;;;12.38;71.58;101827.31;5016657;28;20200;-78
2022/10/07 09:15:17;;;;;;;4.47;1.13;;;;;;;12.44;72.12;101836.00;5016231;28;20239;-79
2022/10/07 09:17:52;;;;;;;7.20;1.20;;;;;;;12.56;71.17;101850.78;5015958;28;20188;-77
2022/10/07 09:20:20;;;;;;;4.13;1.37;;;;;;;12.63;71.77;101863.00;5015932;28;20214;-79
2022/10/07 09:22:51;;;;;;;4.07;1.20;;;;;;;12.70;71.54;101856.84;5015330;28;20217;-78
2022/10/07 09:25:21;;;;;;;4.90;1.50;;;;;;;12.80;69.82;101876.00;5015232;28;20778;-78
2022/10/07 09:27:50;;;;;;;3.63;1.17;;;;;;;12.86;69.21;101919.66;5014125;28;20218;-78
2022/10/07 09:30:17;;;;;;;4.43;1.40;;;;;;;12.90;69.76;101917.03;5015600;28;20222;-78
2022/10/07 09:32:46;;;;;;;3.13;0.97;;;;;;;12.97;68.77;101920.47;5015399;28;20213;-79
2022/10/07 09:35:14;;;;;;;2.53;1.27;;;;;;;13.07;70.11;101914.31;5014925;28;20238;-78
2022/10/07 09:37:55;;;;;;;5.80;1.20;;;;;;;13.18;69.64;101895.91;5014471;28;20679;-78
2022/10/07 09:40:33;;;;;;;1.97;1.23;;;;;;;13.23;69.36;101885.38;5014166;28;20655;-78
2022/10/07 09:42:59;;;;;;;5.27;1.73;;;;;;;13.25;70.31;101866.13;5014970;28;20207;-78
2022/10/07 09:45:30;;;;;;;4.40;1.27;;;;;;;13.23;68.28;101861.78;5015612;28;20229;-78
2022/10/07 09:47:59;;;;;;;5.10;1.07;;;;;;;13.33;68.30;101892.31;5015833;28;20203;-78
2022/10/07 09:50:32;;;;;;;4.20;1.33;;;;;;;13.45;66.40;101930.72;5014533;28;20221;-79
2022/10/07 09:52:58;;;;;;;7.57;1.47;;;;;;;13.50;66.71;101965.66;5015100;28;20241;-79
2022/10/07 09:55:36;;;;;;;4.07;1.20;;;;;;;13.56;66.11;101986.63;5014968;28;20242;-78
2022/10/07 09:58:05;;;;;;;3.80;1.20;;;;;;;13.60;66.60;101969.09;5014359;28;20281;-77
2022/10/07 10:00:40;;;;;;;3.00;1.40;;;;;;;13.64;65.77;101979.56;5014918;28;20221;-78
2022/10/07 10:03:07;;;;;;;4.80;1.10;;;;;;;13.64;65.93;101966.44;5013883;28;20192;-78
2022/10/07 10:05:36;;;;;;;2.90;1.07;;;;;;;13.63;65.56;101996.16;5014754;28;20229;-78
2022/10/07 10:08:05;;;;;;;2.93;1.10;;;;;;;13.63;65.29;101990.06;5014480;28;20218;-79
2022/10/07 10:10:34;;;;;;;4.17;1.33;;;;;;;13.73;66.01;101970.72;5014389;28;20206;-78
2022/10/07 10:13:03;;;;;;;4.67;1.17;;;;;;;13.75;65.21;101982.09;5015160;28;20214;-79
2022/10/07 10:15:39;;;;;;;5.97;1.77;;;;;;;13.84;65.53;101966.28;5014097;28;20245;-79
2022/10/07 10:18:28;;;;;;;6.37;1.57;;;;;;;13.85;66.10;101951.41;5015266;28;20198;-79
2022/10/07 10:20:54;;;;;;;6.17;1.20;;;;;;;13.95;66.34;101924.19;5014631;28;20210;-78
2022/10/07 10:23:28;;;;;;;5.83;1.43;;;;;;;14.00;66.21;101919.78;5014805;28;20212;-78
2022/10/07 10:26:28;;;;;;;6.80;1.33;;;;;;;14.03;66.34;101903.09;5014521;28;20268;-79
2022/10/07 10:29:02;;;;;;;4.67;1.30;;;;;;;13.98;67.07;101882.16;5013392;28;20757;-78
2022/10/07 10:31:42;;;;;;;4.60;1.17;;;;;;;14.02;66.17;101904.88;5012485;28;20558;-78
2022/10/07 10:34:19;;;;;;;5.27;1.10;;;;;;;14.05;64.59;101910.09;5012333;28;20198;-78
2022/10/07 10:36:51;;;;;;;5.33;1.00;;;;;;;14.14;65.54;101924.88;5012459;28;20221;-78
2022/10/07 10:39:31;;;;;;;4.23;1.00;;;;;;;14.15;65.42;101899.50;5011991;28;20699;-78
2022/10/07 10:42:02;;;;;;;4.67;1.87;;;;;;;14.13;63.35;101923.13;5012386;28;20736;-79
2022/10/07 10:44:45;;;;;;;2.80;1.13;;;;;;;14.22;64.87;101923.06;5013056;28;20209;-78
2022/10/07 10:47:21;;;;;;;2.57;1.20;;;;;;;14.30;64.76;101900.19;5012590;28;20224;-78
2022/10/07 10:50:01;;;;;;;2.73;1.00;;;;;;;14.34;64.16;101905.44;5011320;28;20227;-77
2022/10/07 10:52:43;;;;;;;6.23;1.57;;;;;;;14.38;62.95;101943.91;5011451;28;20191;-78
2022/10/07 10:55:22;;;;;;;3.50;1.10;;;;;;;14.50;63.13;101957.78;5011722;28;20254;-78
2022/10/07 10:58:06;;;;;;;6.03;1.30;;;;;;;14.56;62.62;101979.63;5011236;28;20217;-78
2022/10/07 11:00:39;;;;;;;3.07;1.40;;;;;;;14.64;63.77;101952.41;5011685;28;20281;-77
2022/10/07 11:03:26;;;;;;;4.43;1.20;;;;;;;14.68;63.73;101945.34;5011674;28;20252;-78
2022/10/07 11:05:55;;;;;;;7.40;1.40;;;;;;;14.64;63.17;101933.13;5011432;28;20237;-78
2022/10/07 11:08:28;;;;;;;5.27;1.47;;;;;;;14.70;61.70;101962.84;5011863;28;20255;-78
2022/10/07 11:10:58;;;;;;;4.27;1.40;;;;;;;14.73;61.24;101985.63;5010691;28;20214;-78
2022/10/07 11:13:40;;;;;;;4.00;1.10;;;;;;;14.75;61.00;101990.88;5011493;28;20210;-78
2022/10/07 11:16:11;;;;;;;5.63;1.30;;;;;;;14.82;60.10;102017.03;5011903;28;20264;-78
2022/10/07 11:18:44;;;;;;;3.53;1.23;;;;;;;14.86;61.78;101996.84;5011906;28;20206;-78
2022/10/07 11:21:17;;;;;;;3.77;1.30;;;;;;;14.88;59.72;102018.72;5011205;28;20673;-78
2022/10/07 11:23:52;;;;;;;3.30;1.13;;;;;;;14.92;59.79;102025.69;5011581;28;20599;-78
2022/10/07 11:26:25;;;;;;;4.27;1.30;;;;;;;15.02;59.81;102019.44;5011033;28;20238;-77
2022/10/07 11:28:55;;;;;;;2.73;0.87;;;;;;;15.15;59.70;102027.19;5011583;28;20203;-78
2022/10/07 11:31:31;;;;;;;4.93;1.20;;;;;;;15.21;60.51;101971.88;5010360;28;20195;-77
2022/10/07 11:34:11;;;;;;;2.20;0.90;;;;;;;15.34;59.24;101986.59;5010826;28;20686;-78
2022/10/07 11:36:42;;;;;;;4.57;1.17;;;;;;;15.45;59.95;101996.97;5010800;28;20320;-77
2022/10/07 11:39:09;;;;;;;3.60;0.83;;;;;;;15.52;57.44;102016.16;5011363;28;20579;-77
2022/10/07 11:41:46;;;;;;;4.53;1.00;;;;;;;15.66;56.33;102088.78;5010954;28;20203;-77
2022/10/07 11:44:21;;;;;;;3.00;1.40;;;;;;;16.03;55.98;102079.50;5010199;28;20213;-78
2022/10/07 11:46:50;;;;;;;2.17;0.90;;;;;;;16.80;55.09;102126.56;5010061;28;20586;-77
2022/10/07 11:49:21;;;;;;;2.27;1.20;;;;;;;17.67;51.33;102199.72;5012113;28;20756;-78
2022/10/07 11:51:57;;;;;;;6.03;1.63;;;;;;;18.42;49.46;102282.72;5014411;28;20218;-77